Time;durP1;ratioP1;P1;durP2;ratioP2;P2;SDS_P1;SDS_P2;PMS_P1;PMS_P2;Temp;Humidity;BMP_temperature;BMP_pressure;BME280_temperature;BME280_humidity;BME280_pressure;Samples;Min_cycle;Max_cycle;Signal;HPM_P1;HPM_P2
2023/03/23 00:01:01;;;;;;;16.70;11.10;;;;;;;11.85;49.08;100634.59;108298;1287;21995;-69
2023/03/23 00:03:31;;;;;;;15.20;11.50;;;;;;;11.76;48.85;100631.54;108110;1287;227581;-68
2023/03/23 00:06:04;;;;;;;14.00;10.30;;;;;;;11.70;49.28;100629.53;108173;1287;21994;-68
2023/03/23 00:08:37;;;;;;;16.80;12.10;;;;;;;11.65;49.77;100626.42;108133;1287;21998;-68
2023/03/23 00:11:04;;;;;;;17.60;11.70;;;;;;;11.59;49.79;100622.80;108238;1287;22025;-68
2023/03/23 00:13:33;;;;;;;14.50;10.60;;;;;;;11.56;49.67;100620.38;108107;1287;21988;-68
2023/03/23 00:16:01;;;;;;;15.20;9.60;;;;;;;11.53;49.73;100617.06;108250;1278;21993;-69
2023/03/23 00:18:27;;;;;;;15.80;10.90;;;;;;;11.50;49.66;100615.34;108274;1287;21988;-68
2023/03/23 00:20:59;;;;;;;15.90;10.90;;;;;;;11.45;49.45;100614.70;108185;1287;21989;-67
2023/03/23 00:23:28;;;;;;;14.60;10.00;;;;;;;11.38;49.28;100614.98;108128;1287;21992;-69
2023/03/23 00:25:58;;;;;;;14.50;10.70;;;;;;;11.28;48.97;100614.56;108223;1287;22092;-69
2023/03/23 00:28:26;;;;;;;14.00;10.10;;;;;;;11.16;48.89;100614.68;108222;1287;21995;-69
2023/03/23 00:31:02;;;;;;;14.80;9.90;;;;;;;10.99;48.58;100613.46;108182;1287;21979;-68
2023/03/23 00:33:30;;;;;;;13.20;9.50;;;;;;;10.85;48.73;100611.14;108061;1287;22458;-68
2023/03/23 00:35:56;;;;;;;13.10;9.30;;;;;;;10.76;49.10;100607.72;108208;1287;21982;-69
2023/03/23 00:38:22;;;;;;;11.50;8.50;;;;;;;10.73;49.22;100607.94;108252;1287;21989;-68
2023/03/23 00:40:51;;;;;;;13.30;9.30;;;;;;;10.71;49.19;100603.73;108312;1287;21983;-68
2023/03/23 00:43:19;;;;;;;11.90;7.90;;;;;;;10.69;49.18;100605.50;108034;1287;21989;-68
2023/03/23 00:45:52;;;;;;;11.70;7.60;;;;;;;10.66;49.27;100606.05;108095;1287;21998;-68
2023/03/23 00:48:19;;;;;;;10.20;8.00;;;;;;;10.68;49.38;100603.76;108186;1287;21996;-69
2023/03/23 00:50:45;;;;;;;14.40;9.70;;;;;;;10.66;49.28;100599.57;108142;1283;21986;-69
2023/03/23 00:53:15;;;;;;;13.80;10.40;;;;;;;10.60;48.80;100601.56;108211;1287;21993;-69
2023/03/23 00:55:42;;;;;;;14.80;11.40;;;;;;;10.46;48.66;100601.48;108268;1287;21991;-68
2023/03/23 00:58:09;;;;;;;19.00;13.40;;;;;;;10.32;48.63;100601.58;108209;1287;21985;-68
2023/03/23 01:00:35;;;;;;;15.80;11.60;;;;;;;10.16;48.39;100597.66;108123;1287;22042;-67
2023/03/23 01:03:03;;;;;;;14.50;10.80;;;;;;;10.08;48.65;100599.29;108180;1287;24358;-70
2023/03/23 01:05:31;;;;;;;18.70;12.40;;;;;;;10.06;48.93;100595.09;108214;1287;22839;-69
2023/03/23 01:07:58;;;;;;;16.40;12.10;;;;;;;9.98;48.76;100594.27;108015;1287;21963;-68
2023/03/23 01:10:26;;;;;;;20.50;14.40;;;;;;;9.87;48.97;100594.16;108212;1287;21986;-68
2023/03/23 01:12:52;;;;;;;21.10;15.80;;;;;;;9.80;49.03;100597.86;108269;1284;21995;-68
2023/03/23 01:15:20;;;;;;;23.10;16.60;;;;;;;9.74;49.09;100598.08;108159;1287;22020;-67
2023/03/23 01:17:47;;;;;;;28.30;20.20;;;;;;;9.69;49.01;100594.27;108038;1287;22003;-67
2023/03/23 01:20:14;;;;;;;24.70;17.20;;;;;;;9.64;49.02;100592.71;108091;1285;21989;-67
2023/03/23 01:22:41;;;;;;;25.40;18.40;;;;;;;9.60;49.21;100595.88;108114;1287;21989;-66
2023/03/23 01:25:07;;;;;;;25.20;15.90;;;;;;;9.58;49.11;100590.63;108138;1287;22465;-69
2023/03/23 01:27:33;;;;;;;21.30;13.60;;;;;;;9.54;49.28;100586.79;108109;1287;23770;-69
2023/03/23 01:29:59;;;;;;;16.40;12.10;;;;;;;9.52;49.34;100588.20;107349;1287;1002427;-69
2023/03/23 01:32:27;;;;;;;12.50;9.30;;;;;;;9.54;49.51;100590.30;108192;1287;21993;-69
2023/03/23 01:34:52;;;;;;;9.90;6.90;;;;;;;9.59;49.70;100588.00;108250;1287;21989;-68
2023/03/23 01:37:19;;;;;;;8.80;6.70;;;;;;;9.66;49.85;100586.91;108125;1287;22025;-67
2023/03/23 01:39:45;;;;;;;9.10;5.90;;;;;;;9.72;49.95;100589.85;108155;1287;21983;-67
2023/03/23 01:42:11;;;;;;;20.00;13.10;;;;;;;9.79;49.98;100588.94;108263;1287;21992;-67
2023/03/23 01:44:37;;;;;;;25.20;18.20;;;;;;;9.78;49.65;100592.97;108287;1274;22036;-69
2023/03/23 01:47:03;;;;;;;22.90;16.70;;;;;;;9.66;49.26;100597.42;107457;1287;1003009;-69
2023/03/23 01:49:36;;;;;;;25.40;16.60;;;;;;;9.56;49.14;100599.05;108110;1287;21995;-67
2023/03/23 01:52:16;;;;;;;21.30;14.30;;;;;;;9.48;49.05;100598.91;108260;1287;23052;-69
2023/03/23 01:54:46;;;;;;;17.50;11.70;;;;;;;9.43;49.14;100600.67;108206;1273;21985;-68
2023/03/23 01:57:14;;;;;;;11.30;7.60;;;;;;;9.37;49.25;100600.70;107369;1287;1002547;-65
2023/03/23 01:59:40;;;;;;;9.10;6.30;;;;;;;9.33;49.41;100603.88;108015;1287;22104;-66
2023/03/23 02:02:06;;;;;;;9.90;6.30;;;;;;;9.32;49.69;100605.63;107806;1287;23396;-68
2023/03/23 02:04:31;;;;;;;9.70;6.80;;;;;;;9.33;49.93;100606.85;108016;1284;22025;-68
2023/03/23 02:06:57;;;;;;;9.40;6.20;;;;;;;9.38;49.98;100608.59;108146;1287;22025;-69
2023/03/23 02:09:26;;;;;;;10.30;6.10;;;;;;;9.42;50.13;100605.25;108062;1287;22080;-66
2023/03/23 02:11:52;;;;;;;10.20;6.70;;;;;;;9.44;50.09;100606.63;108176;1287;21988;-69
2023/03/23 02:14:25;;;;;;;12.50;7.80;;;;;;;9.48;50.30;100603.98;108280;1287;21983;-69
2023/03/23 02:17:15;;;;;;;11.30;7.60;;;;;;;9.54;50.54;100602.21;108213;1281;22078;-66
2023/03/23 02:20:18;;;;;;;10.20;6.80;;;;;;;9.59;50.70;100603.23;108204;1287;22002;-66
2023/03/23 02:23:15;;;;;;;9.50;6.60;;;;;;;9.62;50.52;100606.73;108193;1284;21992;-66
2023/03/23 02:25:49;;;;;;;11.10;7.10;;;;;;;9.64;50.60;100608.13;108253;1287;21995;-67
2023/03/23 02:28:35;;;;;;;10.80;7.40;;;;;;;9.68;50.74;100609.68;108272;1287;21990;-70
2023/03/23 02:31:19;;;;;;;10.60;7.50;;;;;;;9.71;50.72;100611.93;107510;1287;1002133;-69
2023/03/23 02:34:05;;;;;;;11.00;6.80;;;;;;;9.74;50.76;100612.98;108349;1286;23715;-66
2023/03/23 02:36:57;;;;;;;10.60;7.50;;;;;;;9.75;50.50;100612.27;108127;1287;21990;-66
2023/03/23 02:39:24;;;;;;;12.40;8.60;;;;;;;9.71;50.20;100613.52;107909;1287;21992;-67
2023/03/23 02:42:05;;;;;;;17.60;11.80;;;;;;;9.67;50.23;100614.25;108129;1287;22025;-69
2023/03/23 02:44:32;;;;;;;17.10;11.20;;;;;;;9.62;49.96;100612.16;108125;1287;22106;-65
2023/03/23 02:46:59;;;;;;;15.40;11.70;;;;;;;9.53;49.48;100612.73;108262;1287;21990;-69
2023/03/23 02:49:25;;;;;;;13.10;10.50;;;;;;;9.36;49.03;100609.98;108126;1287;21993;-65
2023/03/23 02:51:51;;;;;;;9.50;7.90;;;;;;;9.21;49.04;100610.21;107876;1287;21997;-68
2023/03/23 02:54:17;;;;;;;10.00;7.80;;;;;;;9.12;49.30;100613.91;107776;1287;21994;-69
2023/03/23 02:56:43;;;;;;;9.90;8.00;;;;;;;9.13;49.62;100611.81;108037;1287;21994;-65
2023/03/23 02:59:12;;;;;;;7.00;5.40;;;;;;;9.16;49.70;100610.41;108235;1287;22126;-65
2023/03/23 03:01:40;;;;;;;11.10;7.90;;;;;;;9.18;49.61;100607.24;108274;1287;21986;-65
2023/03/23 03:04:12;;;;;;;9.60;7.10;;;;;;;9.18;49.61;100608.11;108202;1287;21988;-68
2023/03/23 03:06:48;;;;;;;13.00;7.90;;;;;;;9.18;49.63;100604.97;108246;1287;24404;-68
2023/03/23 03:09:41;;;;;;;19.10;11.20;;;;;;;9.15;49.48;100606.91;108152;1287;21981;-68
2023/03/23 03:12:17;;;;;;;9.20;6.50;;;;;;;9.04;49.29;100610.43;108005;1287;21986;-64
2023/03/23 03:14:56;;;;;;;9.30;5.80;;;;;;;8.96;49.34;100611.69;108057;1287;21997;-68
2023/03/23 03:17:26;;;;;;;6.40;4.40;;;;;;;8.87;49.30;100615.19;108070;1287;24380;-65
2023/03/23 03:19:57;;;;;;;5.40;4.00;;;;;;;8.80;49.39;100611.70;108172;1284;23710;-69
2023/03/23 03:22:23;;;;;;;5.90;3.90;;;;;;;8.75;49.72;100614.86;108223;1287;22001;-69
2023/03/23 03:24:49;;;;;;;6.90;4.50;;;;;;;8.71;49.73;100617.48;107986;1283;21997;-69
2023/03/23 03:27:16;;;;;;;9.10;4.50;;;;;;;8.66;49.84;100617.83;108030;1280;22023;-66
2023/03/23 03:29:42;;;;;;;6.50;4.20;;;;;;;8.61;49.90;100615.58;107956;1287;21985;-66
2023/03/23 03:32:12;;;;;;;5.70;4.50;;;;;;;8.62;50.20;100618.36;107839;1286;22022;-66
2023/03/23 03:34:38;;;;;;;8.80;6.10;;;;;;;8.63;50.06;100620.80;108049;1287;22029;-69
2023/03/23 03:37:05;;;;;;;10.20;7.20;;;;;;;8.58;49.78;100625.54;108052;1287;21998;-69
2023/03/23 03:39:36;;;;;;;9.50;6.40;;;;;;;8.52;49.91;100626.77;107989;1286;21989;-65
2023/03/23 03:42:03;;;;;;;31.20;18.80;;;;;;;8.47;49.78;100630.92;108099;1287;22020;-70
2023/03/23 03:44:33;;;;;;;15.60;9.20;;;;;;;8.42;49.58;100635.46;108099;1287;21991;-70
2023/03/23 03:46:59;;;;;;;9.40;6.50;;;;;;;8.32;50.03;100640.00;108041;1287;21991;-70
2023/03/23 03:49:26;;;;;;;7.00;5.30;;;;;;;8.26;50.04;100641.56;108144;1287;21997;-69
2023/03/23 03:51:53;;;;;;;5.10;3.60;;;;;;;8.24;50.21;100642.79;107981;1287;21992;-64
2023/03/23 03:54:20;;;;;;;6.10;4.50;;;;;;;8.29;50.60;100643.51;108071;1287;21998;-69
2023/03/23 03:56:46;;;;;;;6.60;4.80;;;;;;;8.31;50.48;100645.43;107929;1282;21993;-69
2023/03/23 03:59:12;;;;;;;7.70;4.70;;;;;;;8.37;51.14;100648.05;107939;1284;21996;-69
2023/03/23 04:01:38;;;;;;;7.40;4.90;;;;;;;8.46;51.14;100649.13;108043;1287;21992;-69
2023/03/23 04:04:08;;;;;;;7.70;4.80;;;;;;;8.55;51.29;100652.13;108057;1280;21997;-69
2023/03/23 04:06:35;;;;;;;5.60;3.70;;;;;;;8.64;51.29;100654.40;108092;1287;21999;-66
2023/03/23 04:09:05;;;;;;;6.90;3.20;;;;;;;8.70;51.52;100655.62;108046;1287;22026;-66
2023/03/23 04:11:33;;;;;;;8.10;5.30;;;;;;;8.76;51.55;100655.79;108045;1287;21996;-69
2023/03/23 04:13:59;;;;;;;5.90;3.50;;;;;;;8.80;51.45;100652.48;108042;1283;23722;-66
2023/03/23 04:16:26;;;;;;;5.00;3.40;;;;;;;8.81;51.31;100653.35;108121;1287;21992;-69
2023/03/23 04:18:55;;;;;;;4.10;2.70;;;;;;;8.83;51.43;100653.70;108126;1287;21995;-70
2023/03/23 04:21:21;;;;;;;6.10;3.50;;;;;;;8.87;51.36;100655.62;108005;1273;21989;-66
2023/03/23 04:23:47;;;;;;;4.30;2.80;;;;;;;8.91;51.48;100659.64;108099;1287;21986;-66
2023/03/23 04:26:13;;;;;;;4.80;2.50;;;;;;;8.97;51.55;100659.80;108182;1283;22489;-70
2023/03/23 04:28:40;;;;;;;5.90;3.00;;;;;;;9.02;51.54;100659.45;108224;1287;21991;-70
2023/03/23 04:31:08;;;;;;;5.60;3.90;;;;;;;9.05;51.60;100657.52;108150;1288;21998;-66
2023/03/23 04:33:34;;;;;;;19.00;4.40;;;;;;;9.10;51.69;100663.98;108130;1288;21988;-71
2023/03/23 04:36:02;;;;;;;5.80;3.00;;;;;;;9.16;52.04;100669.92;108106;1288;21992;-66
2023/03/23 04:38:33;;;;;;;5.30;3.10;;;;;;;9.26;52.25;100672.02;107904;1285;22001;-67
2023/03/23 04:41:01;;;;;;;6.50;3.30;;;;;;;9.35;52.28;100674.80;108100;1287;21989;-71
2023/03/23 04:43:28;;;;;;;6.50;3.20;;;;;;;9.42;52.30;100675.82;108114;1287;22104;-70
2023/03/23 04:45:58;;;;;;;6.40;3.20;;;;;;;9.50;52.26;100676.85;108123;1287;22000;-70
2023/03/23 04:48:27;;;;;;;4.40;2.70;;;;;;;9.57;52.35;100678.40;108113;1287;22013;-67
2023/03/23 04:50:54;;;;;;;13.90;3.80;;;;;;;9.65;52.34;100681.53;108263;1275;21989;-70
2023/03/23 04:53:21;;;;;;;4.80;3.30;;;;;;;9.75;52.50;100680.95;108232;1287;23057;-66
2023/03/23 04:55:48;;;;;;;5.50;3.10;;;;;;;9.86;52.53;100681.45;108176;1287;21993;-70
2023/03/23 04:58:15;;;;;;;10.50;3.60;;;;;;;9.94;52.54;100682.98;108236;1287;21997;-69
2023/03/23 05:00:49;;;;;;;5.60;3.80;;;;;;;10.04;52.73;100685.05;108177;1287;21984;-66
2023/03/23 05:03:17;;;;;;;8.80;4.60;;;;;;;10.15;52.76;100686.73;107965;1287;22025;-66
2023/03/23 05:05:46;;;;;;;10.30;4.90;;;;;;;10.26;52.91;100690.72;108225;1287;21990;-65
2023/03/23 05:08:14;;;;;;;9.60;5.80;;;;;;;10.39;52.99;100690.64;108559;1287;21998;-66
2023/03/23 05:10:40;;;;;;;17.30;6.70;;;;;;;10.48;52.75;100694.11;108185;1287;21999;-70
2023/03/23 05:13:06;;;;;;;10.00;5.80;;;;;;;10.51;52.48;100692.00;108224;1283;21986;-68
2023/03/23 05:15:32;;;;;;;12.90;6.70;;;;;;;10.53;52.70;100694.44;108138;1287;21996;-67
2023/03/23 05:17:58;;;;;;;12.30;5.40;;;;;;;10.59;52.95;100695.62;108107;1287;22025;-65
2023/03/23 05:20:28;;;;;;;10.70;5.40;;;;;;;10.70;53.24;100694.64;108134;1287;22025;-65
2023/03/23 05:22:56;;;;;;;8.20;5.50;;;;;;;10.84;53.68;100695.77;108098;1287;21991;-64
2023/03/23 05:25:22;;;;;;;9.10;6.10;;;;;;;10.96;54.09;100694.44;108039;1287;21984;-67
2023/03/23 05:27:52;;;;;;;12.50;6.80;;;;;;;11.07;54.26;100695.56;108146;1287;22027;-65
2023/03/23 05:30:18;;;;;;;10.40;5.70;;;;;;;11.22;54.28;100697.35;108133;1286;22025;-64
2023/03/23 05:32:51;;;;;;;9.40;6.10;;;;;;;11.38;54.69;100695.96;108136;1286;24412;-65
2023/03/23 05:35:18;;;;;;;8.20;6.00;;;;;;;11.49;54.94;100694.61;108129;1287;21986;-65
2023/03/23 05:37:44;;;;;;;7.90;5.70;;;;;;;11.60;55.29;100694.14;108167;1285;21995;-65
2023/03/23 05:40:11;;;;;;;6.90;5.40;;;;;;;11.72;55.39;100693.30;108112;1287;21996;-66
2023/03/23 05:42:40;;;;;;;7.20;5.70;;;;;;;11.84;55.54;100692.98;108140;1287;22000;-65
2023/03/23 05:45:08;;;;;;;7.70;5.50;;;;;;;11.94;55.77;100692.52;108240;1283;22457;-65
2023/03/23 05:47:37;;;;;;;7.90;5.90;;;;;;;12.06;56.19;100697.12;108123;1287;21995;-66
2023/03/23 05:50:03;;;;;;;7.70;6.00;;;;;;;12.25;57.09;100699.16;108128;1284;21987;-68
2023/03/23 05:52:32;;;;;;;8.60;5.50;;;;;;;12.44;57.57;100700.83;108173;1286;22007;-68
2023/03/23 05:54:58;;;;;;;9.40;5.60;;;;;;;12.64;57.49;100697.16;108059;1287;22019;-67
2023/03/23 05:57:25;;;;;;;25.50;6.50;;;;;;;12.85;57.91;100694.90;108255;1287;22291;-67
2023/03/23 05:59:50;;;;;;;14.90;6.20;;;;;;;13.07;58.31;100696.65;108151;1283;21985;-68
2023/03/23 06:02:16;;;;;;;14.70;6.30;;;;;;;13.32;58.66;100699.55;108144;1286;21982;-68
2023/03/23 06:04:42;;;;;;;13.10;7.30;;;;;;;13.55;58.63;100700.55;108131;1287;21998;-69
2023/03/23 06:07:12;;;;;;;11.90;8.40;;;;;;;13.76;58.82;100700.84;108115;1287;21989;-67
2023/03/23 06:09:38;;;;;;;15.40;9.00;;;;;;;13.98;59.12;100698.80;108131;1287;21983;-68
2023/03/23 06:12:05;;;;;;;12.60;9.20;;;;;;;14.20;59.17;100696.20;108234;1287;21989;-68
2023/03/23 06:14:33;;;;;;;12.60;9.30;;;;;;;14.42;59.19;100699.42;108223;1287;21989;-68
2023/03/23 06:16:59;;;;;;;15.60;10.30;;;;;;;14.62;59.20;100698.60;108203;1287;21988;-68
2023/03/23 06:19:32;;;;;;;15.30;11.20;;;;;;;14.85;59.64;100698.60;108170;1287;21984;-68
2023/03/23 06:21:59;;;;;;;15.20;10.10;;;;;;;15.09;59.82;100698.71;108169;1287;21997;-68
2023/03/23 06:24:25;;;;;;;14.60;11.10;;;;;;;15.32;60.06;100700.23;108160;1287;22000;-68
2023/03/23 06:26:51;;;;;;;12.40;9.30;;;;;;;15.58;60.21;100703.08;108200;1287;21985;-67
2023/03/23 06:29:18;;;;;;;13.40;10.10;;;;;;;15.82;60.26;100705.92;108087;1287;22027;-68
2023/03/23 06:31:51;;;;;;;14.40;11.00;;;;;;;16.10;60.59;100702.83;108197;1287;21981;-67
2023/03/23 06:34:16;;;;;;;14.00;10.60;;;;;;;16.37;60.57;100702.36;108197;1287;21994;-68
2023/03/23 06:36:44;;;;;;;15.50;10.50;;;;;;;16.60;60.30;100698.63;108080;1287;22004;-68
2023/03/23 06:39:10;;;;;;;14.70;10.70;;;;;;;16.83;60.03;100700.73;108105;1287;22009;-67
2023/03/23 06:41:36;;;;;;;12.90;10.00;;;;;;;17.04;59.73;100699.17;108132;1287;21990;-67
2023/03/23 06:44:08;;;;;;;17.60;11.20;;;;;;;17.24;59.61;100701.69;108094;1287;21944;-68
2023/03/23 06:46:34;;;;;;;13.00;10.10;;;;;;;17.46;59.73;100705.35;108112;1287;22009;-68
2023/03/23 06:49:00;;;;;;;15.00;11.40;;;;;;;17.65;59.42;100703.60;108300;1287;21986;-67
2023/03/23 06:51:26;;;;;;;14.70;11.10;;;;;;;17.87;58.82;100702.42;108165;1287;22029;-68
2023/03/23 06:53:52;;;;;;;15.40;10.30;;;;;;;18.03;58.07;100703.27;108165;1287;21992;-67
2023/03/23 06:56:17;;;;;;;16.60;11.10;;;;;;;18.22;58.55;100705.55;108192;1287;21982;-68
2023/03/23 06:58:45;;;;;;;13.40;10.30;;;;;;;18.48;58.68;100699.58;108193;1287;22003;-68
2023/03/23 07:01:11;;;;;;;14.70;10.40;;;;;;;18.71;58.17;100699.20;108201;1287;22000;-69
2023/03/23 07:03:37;;;;;;;15.10;10.30;;;;;;;18.94;58.11;100704.84;108139;1287;21996;-68
2023/03/23 07:06:04;;;;;;;21.80;11.10;;;;;;;19.16;57.83;100704.79;108125;1287;22077;-68
2023/03/23 07:08:30;;;;;;;18.20;11.60;;;;;;;19.40;57.74;100707.51;108197;1287;22033;-68
2023/03/23 07:11:03;;;;;;;18.60;12.00;;;;;;;19.65;57.17;100708.36;108035;1286;22004;-68
2023/03/23 07:13:30;;;;;;;17.00;11.40;;;;;;;19.87;56.77;100709.38;108076;1287;22086;-68
2023/03/23 07:15:57;;;;;;;14.70;10.50;;;;;;;20.09;56.79;100708.89;108009;1287;23742;-69
2023/03/23 07:18:23;;;;;;;18.60;9.80;;;;;;;20.31;56.12;100708.73;108138;1287;21997;-69
2023/03/23 07:20:49;;;;;;;15.50;10.60;;;;;;;20.50;55.60;100708.75;108121;1287;21992;-69
2023/03/23 07:23:20;;;;;;;16.60;11.20;;;;;;;20.69;55.37;100706.77;108095;1287;21990;-68
2023/03/23 07:25:48;;;;;;;17.90;11.10;;;;;;;20.86;54.95;100703.75;108059;1287;21998;-69
2023/03/23 07:28:14;;;;;;;15.00;10.60;;;;;;;21.06;54.44;100704.75;108175;1287;22140;-69
2023/03/23 07:30:41;;;;;;;15.40;10.80;;;;;;;21.25;52.97;100702.55;107985;1287;21992;-68
2023/03/23 07:33:09;;;;;;;13.80;10.20;;;;;;;21.32;52.97;100706.09;107934;1287;21993;-68
2023/03/23 07:35:35;;;;;;;14.50;10.50;;;;;;;21.44;52.54;100706.03;108072;1287;21995;-70
2023/03/23 07:38:03;;;;;;;18.40;10.70;;;;;;;21.57;51.54;100704.81;108084;1287;21976;-69
2023/03/23 07:40:32;;;;;;;15.30;10.30;;;;;;;21.61;50.41;100702.09;108179;1287;25142;-69
2023/03/23 07:43:01;;;;;;;17.70;10.80;;;;;;;21.62;49.79;100704.36;108189;1287;21996;-69
2023/03/23 07:45:29;;;;;;;21.90;11.50;;;;;;;21.60;49.52;100709.98;108317;1287;21997;-69
2023/03/23 07:47:56;;;;;;;15.90;10.20;;;;;;;21.70;50.26;100712.19;108062;1275;23839;-69
2023/03/23 07:50:26;;;;;;;14.40;10.30;;;;;;;21.92;50.29;100712.46;108201;1284;22188;-69
2023/03/23 07:52:57;;;;;;;18.00;10.90;;;;;;;22.16;50.73;100711.84;108056;1288;21981;-69
2023/03/23 07:55:24;;;;;;;13.40;9.20;;;;;;;22.50;50.80;100714.95;108121;1280;22004;-70
2023/03/23 07:57:50;;;;;;;14.40;9.80;;;;;;;22.76;48.29;100713.31;108175;1288;22007;-70
2023/03/23 08:00:20;;;;;;;12.10;9.10;;;;;;;22.73;46.43;100709.02;108279;1288;22103;-69
2023/03/23 08:02:48;;;;;;;11.70;9.10;;;;;;;22.68;47.57;100706.97;108141;1288;21988;-69
2023/03/23 08:05:15;;;;;;;16.60;9.90;;;;;;;22.84;47.03;100709.06;108152;1288;22066;-70
2023/03/23 08:07:41;;;;;;;17.80;9.70;;;;;;;22.90;46.35;100710.34;108144;1288;22753;-69
2023/03/23 08:10:10;;;;;;;13.00;9.70;;;;;;;23.00;46.50;100709.77;108122;1288;21992;-69
2023/03/23 08:12:43;;;;;;;13.80;10.10;;;;;;;23.13;46.96;100708.65;108117;1287;21989;-70
2023/03/23 08:15:14;;;;;;;11.30;9.50;;;;;;;23.38;47.51;100704.14;108169;1287;21998;-70
2023/03/23 08:17:41;;;;;;;12.00;9.40;;;;;;;23.61;46.74;100702.38;108090;1288;21982;-70
2023/03/23 08:20:12;;;;;;;16.80;9.70;;;;;;;23.79;46.27;100700.18;108168;1287;21991;-70
2023/03/23 08:22:39;;;;;;;11.90;9.10;;;;;;;23.90;46.30;100698.42;108041;1287;22008;-69
2023/03/23 08:25:06;;;;;;;15.90;9.60;;;;;;;24.09;45.77;100698.65;108168;1279;21989;-69
2023/03/23 08:27:32;;;;;;;15.60;9.70;;;;;;;24.08;43.67;100699.13;108167;1287;21981;-68
2023/03/23 08:29:59;;;;;;;11.30;9.40;;;;;;;23.90;43.95;100697.91;108133;1287;23724;-70
2023/03/23 08:32:31;;;;;;;17.80;11.10;;;;;;;23.92;44.51;100695.03;108063;1287;22033;-69
2023/03/23 08:34:57;;;;;;;12.20;8.70;;;;;;;24.07;45.22;100694.83;108051;1287;22131;-69
2023/03/23 08:37:22;;;;;;;14.30;9.90;;;;;;;24.37;45.25;100690.77;108052;1288;22461;-70
2023/03/23 08:39:53;;;;;;;12.80;9.00;;;;;;;24.70;44.94;100688.25;108091;1287;21996;-70
2023/03/23 08:42:19;;;;;;;17.40;10.20;;;;;;;24.96;43.91;100686.20;108158;1288;21997;-70
2023/03/23 08:44:46;;;;;;;13.50;10.00;;;;;;;25.03;42.87;100684.45;108102;1287;21987;-70
2023/03/23 08:47:13;;;;;;;15.10;9.60;;;;;;;25.07;43.31;100685.30;108121;1287;21984;-69
2023/03/23 08:49:39;;;;;;;13.20;8.10;;;;;;;25.25;43.34;100684.08;108046;1287;21986;-70
2023/03/23 08:52:05;;;;;;;11.90;9.10;;;;;;;25.38;41.84;100682.24;108088;1287;21987;-69
2023/03/23 08:54:31;;;;;;;12.50;8.30;;;;;;;25.27;42.18;100677.25;108173;1287;21991;-69
2023/03/23 08:57:01;;;;;;;13.30;8.10;;;;;;;25.36;43.00;100675.05;108227;1287;21987;-70
2023/03/23 08:59:27;;;;;;;11.50;8.00;;;;;;;25.55;43.19;100673.36;108220;1287;21987;-70
2023/03/23 09:01:53;;;;;;;12.60;8.20;;;;;;;25.87;43.38;100671.27;108123;1287;21987;-70
2023/03/23 09:04:19;;;;;;;12.00;8.90;;;;;;;26.23;43.64;100671.96;108171;1287;22000;-68
2023/03/23 09:06:45;;;;;;;14.80;8.20;;;;;;;26.53;42.83;100662.16;108100;1287;22012;-69
2023/03/23 09:09:11;;;;;;;12.80;7.90;;;;;;;26.79;42.10;100664.55;107980;1280;21989;-70
2023/03/23 09:11:39;;;;;;;10.80;7.60;;;;;;;27.08;41.97;100662.89;108278;1287;22844;-69
2023/03/23 09:14:06;;;;;;;11.50;7.30;;;;;;;27.35;42.09;100658.43;108373;1283;22037;-69
2023/03/23 09:16:32;;;;;;;17.30;7.40;;;;;;;27.44;39.13;100658.66;108094;1287;21991;-69
2023/03/23 09:18:59;;;;;;;14.70;8.40;;;;;;;27.13;37.50;100659.85;108111;1287;21992;-70
2023/03/23 09:21:25;;;;;;;12.90;7.50;;;;;;;26.77;37.84;100660.05;108114;1287;21995;-69
2023/03/23 09:23:52;;;;;;;17.90;7.80;;;;;;;26.43;36.57;100658.09;108112;1287;21987;-69
2023/03/23 09:26:18;;;;;;;10.90;7.20;;;;;;;26.11;36.71;100655.52;107971;1287;21996;-70
2023/03/23 09:28:45;;;;;;;11.10;7.50;;;;;;;26.02;37.19;100654.63;108205;1286;21956;-69
2023/03/23 09:31:12;;;;;;;14.60;8.50;;;;;;;25.91;36.99;100648.73;108193;1287;21981;-69
2023/03/23 09:33:39;;;;;;;16.10;7.80;;;;;;;25.82;37.17;100646.13;107838;1288;23072;-69
2023/03/23 09:36:12;;;;;;;12.70;7.10;;;;;;;26.03;39.24;100645.12;107915;1288;21992;-69
2023/03/23 09:38:41;;;;;;;12.70;7.00;;;;;;;26.45;39.90;100638.65;108150;1288;22000;-68
2023/03/23 09:41:16;;;;;;;9.60;6.80;;;;;;;26.82;38.08;100642.37;108111;1286;22011;-70
2023/03/23 09:44:07;;;;;;;16.00;6.90;;;;;;;26.86;37.02;100643.15;108060;1287;21986;-69
2023/03/23 09:46:53;;;;;;;;;;;;;;;27.07;37.86;100645.02;108094;1287;21973;-69
2023/03/23 09:49:23;;;;;;;16.40;6.70;;;;;;;27.35;37.32;100640.26;108082;1287;21998;-69
2023/03/23 09:51:55;;;;;;;12.20;6.20;;;;;;;27.53;37.09;100631.53;108248;1287;21995;-68
2023/03/23 09:54:26;;;;;;;10.90;7.20;;;;;;;27.49;35.79;100634.86;108121;1287;21988;-68
2023/03/23 09:56:52;;;;;;;12.30;8.00;;;;;;;27.52;36.85;100633.55;108204;1287;21990;-69
2023/03/23 09:59:30;;;;;;;12.90;7.50;;;;;;;27.65;36.33;100633.45;108032;1287;21989;-68
2023/03/23 10:01:59;;;;;;;15.50;7.80;;;;;;;27.58;35.42;100630.06;108246;1287;21991;-69
2023/03/23 10:04:31;;;;;;;11.30;7.40;;;;;;;27.49;34.81;100632.70;107926;1288;23066;-70
2023/03/23 10:07:09;;;;;;;19.50;7.80;;;;;;;27.37;35.42;100635.08;108143;1288;22456;-69
2023/03/23 10:09:36;;;;;;;18.00;7.90;;;;;;;27.51;37.04;100631.98;107877;1288;21998;-69
2023/03/23 10:12:18;;;;;;;13.20;7.70;;;;;;;27.73;35.44;100627.23;107982;1287;22031;-69
2023/03/23 10:15:05;;;;;;;12.30;7.20;;;;;;;27.47;33.67;100629.95;108183;1287;22042;-69
2023/03/23 10:17:36;;;;;;;10.40;7.00;;;;;;;27.20;34.25;100631.40;108131;1287;21988;-69
2023/03/23 10:20:32;;;;;;;11.10;7.20;;;;;;;27.12;34.79;100632.19;108072;1285;23101;-69
2023/03/23 10:23:14;;;;;;;11.10;7.10;;;;;;;27.30;35.23;100628.95;108158;1287;23621;-69
2023/03/23 10:25:43;;;;;;;11.30;6.80;;;;;;;27.66;35.52;100625.96;108173;1287;21994;-69
2023/03/23 10:28:16;;;;;;;15.20;7.20;;;;;;;27.73;33.21;100631.33;108191;1287;21987;-68
2023/03/23 10:30:45;;;;;;;12.70;6.80;;;;;;;27.63;34.27;100633.98;108102;1287;24410;-68
2023/03/23 10:33:35;;;;;;;11.00;6.60;;;;;;;27.61;34.67;100635.05;108113;1287;24344;-69
2023/03/23 10:36:21;;;;;;;10.90;6.90;;;;;;;27.68;34.21;100637.35;108046;1287;22003;-70
2023/03/23 10:38:56;;;;;;;10.80;6.50;;;;;;;27.70;33.33;100636.23;108076;1286;22015;-69
2023/03/23 10:41:22;;;;;;;11.40;6.90;;;;;;;27.73;34.64;100631.86;108178;1287;23647;-69
2023/03/23 10:43:53;;;;;;;12.30;6.70;;;;;;;28.04;35.13;100631.52;108061;1286;21981;-70
2023/03/23 10:46:47;;;;;;;9.20;6.00;;;;;;;28.43;34.49;100627.63;108178;1287;21994;-70
2023/03/23 10:49:14;;;;;;;11.50;6.00;;;;;;;28.80;34.55;100626.36;108138;1287;21987;-70
2023/03/23 10:51:43;;;;;;;13.50;6.40;;;;;;;29.18;32.80;100622.24;108019;1287;22268;-70
2023/03/23 10:54:25;;;;;;;10.20;6.20;;;;;;;29.13;32.19;100614.87;108347;1285;21991;-68
2023/03/23 10:56:51;;;;;;;13.30;7.60;;;;;;;28.86;32.25;100614.66;108167;1287;22992;-67
2023/03/23 10:59:26;;;;;;;14.50;7.30;;;;;;;28.51;32.04;100613.81;108245;1287;21990;-68
2023/03/23 11:01:54;;;;;;;18.70;7.30;;;;;;;28.30;32.75;100613.21;108350;1287;22056;-71
2023/03/23 11:04:21;;;;;;;15.10;7.60;;;;;;;28.27;33.10;100605.32;108192;1287;21997;-68
2023/03/23 11:06:57;;;;;;;16.40;6.90;;;;;;;28.17;32.52;100605.44;108481;1287;21984;-69
2023/03/23 11:09:35;;;;;;;15.60;6.20;;;;;;;28.37;33.83;100595.81;108161;1283;21982;-68
2023/03/23 11:12:02;;;;;;;12.70;5.70;;;;;;;28.84;33.62;100592.46;108208;1287;22001;-68
2023/03/23 11:14:38;;;;;;;9.80;5.90;;;;;;;29.42;34.76;100587.98;108118;1287;21976;-67
2023/03/23 11:17:06;;;;;;;15.20;6.20;;;;;;;29.89;35.43;100580.33;108095;1287;21990;-68
2023/03/23 11:19:35;;;;;;;10.40;5.40;;;;;;;30.37;35.37;100576.18;108207;1287;22046;-70
2023/03/23 11:22:04;;;;;;;13.80;6.30;;;;;;;30.76;33.97;100575.04;108125;1287;23609;-69